createdAt,value
2022-10-17T00:00:29.024Z,13.3
2022-10-17T00:02:30.933Z,13.3
2022-10-17T00:06:34.716Z,13.3
2022-10-17T00:08:36.615Z,13.3
2022-10-17T00:12:43.587Z,13.3
2022-10-17T00:14:45.491Z,13.3
2022-10-17T00:16:47.420Z,13.3
2022-10-17T00:17:49.946Z,13.2
2022-10-17T00:19:51.869Z,13.2
2022-10-17T00:21:53.733Z,13.2
2022-10-17T00:23:55.653Z,13.3
2022-10-17T00:26:00.719Z,13.2
2022-10-17T00:28:02.659Z,13.2
2022-10-17T00:30:04.516Z,13.3
2022-10-17T00:32:06.408Z,13
2022-10-17T00:34:08.325Z,13.2
2022-10-17T00:36:10.267Z,13.2
2022-10-17T00:38:12.146Z,13.2
2022-10-17T00:40:17.209Z,13
2022-10-17T00:42:19.111Z,13
2022-10-17T00:44:21.011Z,13.1
2022-10-17T00:46:22.929Z,12.9
2022-10-17T00:48:24.846Z,13
2022-10-17T00:50:26.757Z,13.1
2022-10-17T00:52:29.063Z,13.1
2022-10-17T00:54:33.706Z,13.1
2022-10-17T00:56:35.606Z,13.1
2022-10-17T00:58:37.518Z,13.1
2022-10-17T01:00:39.433Z,13.1
2022-10-17T01:04:43.248Z,13.1
2022-10-17T01:06:45.131Z,13.1
2022-10-17T01:08:50.193Z,13
2022-10-17T01:10:52.092Z,13
2022-10-17T01:12:54.016Z,12.9
2022-10-17T01:15:58.460Z,13.1
2022-10-17T01:18:00.341Z,13
2022-10-17T01:20:02.255Z,13.1
2022-10-17T01:22:07.301Z,13
2022-10-17T01:24:09.215Z,12.9
2022-10-17T01:26:11.138Z,12.8
2022-10-17T01:28:13.041Z,13
2022-10-17T01:30:14.978Z,12.9
2022-10-17T01:32:16.855Z,13
2022-10-17T01:34:18.767Z,13
2022-10-17T01:36:23.840Z,13
2022-10-17T01:38:25.733Z,12.9
2022-10-17T01:40:27.632Z,13.1
2022-10-17T01:42:29.965Z,13
2022-10-17T01:44:31.466Z,13
2022-10-17T01:46:33.364Z,13
2022-10-17T01:48:35.283Z,13
2022-10-17T01:50:40.331Z,12.9
2022-10-17T01:52:42.231Z,13.1
2022-10-17T01:54:44.125Z,13.1
2022-10-17T01:56:46.051Z,12.9
2022-10-17T01:58:47.970Z,12.9
2022-10-17T02:00:49.855Z,12.9
2022-10-17T02:02:51.781Z,12.8
2022-10-17T02:04:56.912Z,13
2022-10-17T02:06:58.724Z,12.8
2022-10-17T02:09:00.627Z,12.9
2022-10-17T02:10:03.147Z,13
2022-10-17T02:18:13.899Z,12.7
2022-10-17T02:20:15.799Z,12.8
2022-10-17T02:22:17.717Z,12.7
2022-10-17T02:24:19.649Z,12.8
2022-10-17T02:26:21.542Z,12.9
2022-10-17T02:28:23.506Z,12.8
2022-10-17T02:30:25.346Z,13
2022-10-17T02:32:30.373Z,13
2022-10-17T02:34:32.283Z,12.9
2022-10-17T02:36:34.176Z,12.9
2022-10-17T02:38:36.071Z,13.1
2022-10-17T02:40:37.983Z,13.1
2022-10-17T02:42:39.877Z,12.9
2022-10-17T02:44:41.786Z,12.9
2022-10-17T02:46:48.342Z,12.8
2022-10-17T02:48:50.251Z,12.8
2022-10-17T02:50:52.190Z,12.9
2022-10-17T02:52:54.095Z,13
2022-10-17T02:54:55.985Z,13.1
2022-10-17T02:56:57.893Z,12.9
2022-10-17T02:58:59.811Z,13.1
2022-10-17T03:01:04.897Z,12.8
2022-10-17T03:11:41.061Z,12.9
2022-10-17T03:15:48.018Z,13
2022-10-17T03:17:49.969Z,13
2022-10-17T03:21:53.788Z,13
2022-10-17T03:23:55.663Z,13.3
2022-10-17T03:25:57.567Z,13.3
2022-10-17T03:28:02.612Z,13.3
2022-10-17T03:30:04.574Z,13.2
2022-10-17T03:32:06.441Z,13.1
2022-10-17T03:34:08.346Z,13
2022-10-17T03:36:10.251Z,13.1
2022-10-17T03:38:12.153Z,13.3
2022-10-17T03:40:14.042Z,13.1
2022-10-17T03:42:19.090Z,13.2
2022-10-17T03:44:20.998Z,13.1
2022-10-17T03:46:22.917Z,13.1
2022-10-17T03:48:24.840Z,13.4
2022-10-17T03:50:26.749Z,13.5
2022-10-17T03:52:28.644Z,13.4
2022-10-17T03:54:30.561Z,13.4
2022-10-17T03:56:35.597Z,13.3
2022-10-17T03:58:37.523Z,13.4
2022-10-17T04:00:39.432Z,13.2
2022-10-17T04:01:42.025Z,13.3
2022-10-17T04:03:43.884Z,13.1
2022-10-17T04:15:58.467Z,13.5
2022-10-17T04:18:00.375Z,13.5
2022-10-17T04:20:02.297Z,13.5
2022-10-17T04:22:04.137Z,13.5
2022-10-17T04:24:09.207Z,13.6
2022-10-17T04:26:11.114Z,13.3
2022-10-17T04:30:14.943Z,13.6
2022-10-17T04:32:16.857Z,13.6
2022-10-17T04:34:18.755Z,13.5
2022-10-17T04:36:20.654Z,13.7
2022-10-17T04:38:28.476Z,13.6
2022-10-17T04:40:27.607Z,13.8
2022-10-17T04:42:29.650Z,13.7
2022-10-17T04:44:31.408Z,13.6
2022-10-17T04:46:33.307Z,13.8
2022-10-17T04:48:35.212Z,13.7
2022-10-17T04:50:37.124Z,13.7
2022-10-17T04:52:42.175Z,13.9
2022-10-17T04:54:44.090Z,13.8
2022-10-17T04:56:45.959Z,13.9
2022-10-17T04:57:48.513Z,13.9
2022-10-17T05:03:54.208Z,13.9
2022-10-17T05:05:59.259Z,13.8
2022-10-17T05:08:01.125Z,13.9
2022-10-17T05:12:08.026Z,13.9
2022-10-17T05:14:06.838Z,14.1
2022-10-17T05:16:08.730Z,14.2
2022-10-17T05:18:10.627Z,14.2
2022-10-17T05:20:15.658Z,14.1
2022-10-17T05:22:17.589Z,14.2
2022-10-17T05:24:19.482Z,14.2
2022-10-17T05:26:21.372Z,14.1
2022-10-17T05:28:23.295Z,14.3
2022-10-17T05:30:25.174Z,14.2
2022-10-17T05:32:27.352Z,14.2
2022-10-17T05:34:32.112Z,14.2
2022-10-17T05:36:33.999Z,14.2
2022-10-17T05:38:35.902Z,14.2
2022-10-17T05:40:37.796Z,14
2022-10-17T05:44:41.591Z,14.4
2022-10-17T05:46:43.483Z,14.4
2022-10-17T05:48:48.529Z,14.4
2022-10-17T05:50:50.403Z,14.6
2022-10-17T05:52:52.325Z,14.7
2022-10-17T05:57:58.633Z,14.9
2022-10-17T06:00:00.528Z,15.6
2022-10-17T06:02:05.624Z,15.5
2022-10-17T06:04:07.459Z,15.6
2022-10-17T06:06:09.348Z,15.8
2022-10-17T06:08:11.276Z,15.9
2022-10-17T06:10:13.129Z,15.9
2022-10-17T06:12:15.023Z,16.2
2022-10-17T06:14:16.938Z,16.2
2022-10-17T06:16:21.944Z,16.2
2022-10-17T06:18:23.817Z,16.2
2022-10-17T06:20:25.725Z,16.2
2022-10-17T06:22:27.775Z,16.1
2022-10-17T06:24:29.487Z,16.2
2022-10-17T06:26:31.357Z,16.2
2022-10-17T06:28:33.293Z,16.2
2022-10-17T06:30:38.283Z,16.2
2022-10-17T06:32:40.165Z,16.1
2022-10-17T06:34:42.047Z,16
2022-10-17T06:36:43.954Z,16
2022-10-17T06:38:45.817Z,15.9
2022-10-17T06:40:47.710Z,15.9
2022-10-17T06:42:49.591Z,16.1
2022-10-17T06:44:54.623Z,16
2022-10-17T06:46:56.484Z,16
2022-10-17T06:48:58.372Z,15.7
2022-10-17T06:51:26.904Z,15.9
2022-10-17T06:53:28.791Z,15.7
2022-10-17T06:55:30.659Z,15.8
2022-10-17T06:57:35.688Z,16.1
2022-10-17T06:59:37.555Z,16.1
2022-10-17T07:01:41.823Z,16.1
2022-10-17T07:03:41.419Z,16.2
2022-10-17T07:05:43.195Z,16.2
2022-10-17T07:07:46.396Z,16.2
2022-10-17T07:09:46.994Z,16.2
2022-10-17T07:11:51.994Z,16
2022-10-17T07:13:53.862Z,16.2
2022-10-17T07:15:55.779Z,16.4
2022-10-17T07:17:57.617Z,16.3
2022-10-17T07:19:59.516Z,16.1
2022-10-17T07:22:01.364Z,16
2022-10-17T07:24:03.265Z,16.3
2022-10-17T07:26:08.302Z,16.3
2022-10-17T07:28:10.179Z,16.3
2022-10-17T07:30:12.378Z,16.3
2022-10-17T07:32:13.917Z,16.1
2022-10-17T07:34:15.814Z,16.4
2022-10-17T07:36:17.689Z,16.5
2022-10-17T07:38:19.584Z,16.4
2022-10-17T07:40:24.601Z,16.6
2022-10-17T07:42:26.559Z,16.4
2022-10-17T07:44:28.352Z,16.7
2022-10-17T07:45:30.882Z,16.4
2022-10-17T07:47:33.093Z,16.7
2022-10-17T07:49:34.613Z,16.5
2022-10-17T07:51:36.594Z,16.5
2022-10-17T07:53:42.843Z,16.7
2022-10-17T07:55:43.395Z,16.9
2022-10-17T07:57:45.277Z,16.8
2022-10-17T07:59:47.169Z,16.8
2022-10-17T08:01:49.044Z,16.9
2022-10-17T08:03:50.914Z,16.8
2022-10-17T08:05:52.804Z,16.8
2022-10-17T08:07:57.826Z,16.8
2022-10-17T08:09:59.756Z,16.7
2022-10-17T08:12:01.597Z,16.8
2022-10-17T08:14:03.441Z,16.7
2022-10-17T08:16:05.316Z,16.7
2022-10-17T08:18:07.207Z,16.9
2022-10-17T08:20:09.087Z,16.8
2022-10-17T08:24:15.956Z,17
2022-10-17T08:26:17.863Z,17
2022-10-17T08:28:19.723Z,17.2
2022-10-17T08:30:21.587Z,17.2
2022-10-17T08:32:23.452Z,17.5
2022-10-17T08:34:25.335Z,17.6
2022-10-17T08:36:31.885Z,17.4
2022-10-17T08:38:35.517Z,17.5
2022-10-17T08:40:35.609Z,17.1
2022-10-17T08:41:38.109Z,17.1
2022-10-17T08:43:39.985Z,16.9
2022-10-17T08:45:41.873Z,16.8
2022-10-17T08:47:43.744Z,16.9
2022-10-17T08:49:48.763Z,16.7
2022-10-17T08:51:50.643Z,16.8
2022-10-17T08:57:56.277Z,16.5
2022-10-17T08:59:58.130Z,16.5
2022-10-17T09:02:00.039Z,16.5
2022-10-17T09:04:05.059Z,16.4
2022-10-17T09:12:12.549Z,16.7
2022-10-17T09:14:14.438Z,16.5
2022-10-17T09:16:16.314Z,16.5
2022-10-17T09:18:22.153Z,16.4
2022-10-17T09:20:23.423Z,16.3
2022-10-17T09:24:26.955Z,16.4
2022-10-17T09:26:28.849Z,16.4
2022-10-17T09:28:30.797Z,16.4
2022-10-17T09:32:37.601Z,16.5
2022-10-17T09:34:39.495Z,16.3
2022-10-17T09:36:41.384Z,16.2
2022-10-17T09:37:43.872Z,16.5
2022-10-17T09:39:45.887Z,16.4
2022-10-17T09:41:47.753Z,16.4
2022-10-17T09:43:49.654Z,16.4
2022-10-17T09:45:54.672Z,16.4
2022-10-17T09:47:58.450Z,16.1
2022-10-17T09:49:58.438Z,16.3
2022-10-17T09:52:00.298Z,16.2
2022-10-17T09:56:04.049Z,16.4
2022-10-17T09:58:05.928Z,16.3
2022-10-17T10:00:11.039Z,16.2
2022-10-17T10:02:12.845Z,16.4
2022-10-17T10:04:14.727Z,16.3
2022-10-17T10:06:16.620Z,16.3
2022-10-17T10:08:18.489Z,16
2022-10-17T10:10:20.509Z,16.3
2022-10-17T10:12:22.239Z,16.3
2022-10-17T10:14:27.287Z,16.3
2022-10-17T10:16:29.128Z,16.3
2022-10-17T10:20:32.922Z,16.4
2022-10-17T10:26:38.550Z,16.4
2022-10-17T10:28:43.592Z,16.5
2022-10-17T10:32:47.322Z,16.3
2022-10-17T10:35:15.862Z,16.4
2022-10-17T10:37:17.736Z,16.3
2022-10-17T10:39:19.625Z,16.5
2022-10-17T10:41:24.648Z,16.3
2022-10-17T10:43:26.535Z,16.3
2022-10-17T10:45:46.996Z,16.3
2022-10-17T10:47:30.606Z,16.4
2022-10-17T10:49:32.190Z,16.4
2022-10-17T10:51:34.057Z,16.5
2022-10-17T10:53:35.920Z,16.5
2022-10-17T10:55:40.994Z,16.4
2022-10-17T10:57:42.839Z,16.5
2022-10-17T11:01:46.602Z,16.7
2022-10-17T11:03:48.461Z,16.5
2022-10-17T11:05:50.335Z,16.8
2022-10-17T11:07:52.202Z,16.4
2022-10-17T11:09:57.237Z,16.8
2022-10-17T11:11:59.125Z,16.6
2022-10-17T11:14:00.993Z,16.7
2022-10-17T11:16:02.873Z,16.8
2022-10-17T11:18:04.738Z,16.5
2022-10-17T11:22:08.500Z,16.7
2022-10-17T11:24:13.518Z,16.5
2022-10-17T11:26:15.412Z,16.7
2022-10-17T11:28:17.269Z,16.6
2022-10-17T11:29:19.780Z,16.7
2022-10-17T11:31:21.658Z,16.6
2022-10-17T11:33:23.512Z,16.7
2022-10-17T11:35:25.423Z,16.8
2022-10-17T11:37:30.418Z,16.8
2022-10-17T11:39:32.414Z,17
2022-10-17T11:41:34.178Z,16.9
2022-10-17T11:43:36.066Z,16.9
2022-10-17T11:45:37.934Z,16.9
2022-10-17T11:47:39.808Z,16.8
2022-10-17T11:49:42.185Z,16.8
2022-10-17T11:52:03.098Z,16.9
2022-10-17T11:53:48.569Z,16.9
2022-10-17T11:55:50.437Z,17.2
2022-10-17T11:57:52.321Z,16.4
2022-10-17T11:59:54.196Z,17.1
2022-10-17T12:01:56.056Z,17
2022-10-17T12:03:57.992Z,17.3
2022-10-17T12:06:02.972Z,17.1
2022-10-17T12:08:04.829Z,17.2
2022-10-17T12:10:06.705Z,17.2
2022-10-17T12:12:08.580Z,17
2022-10-17T12:14:10.462Z,17.2
2022-10-17T12:16:15.983Z,17.1
2022-10-17T12:20:19.338Z,17.4
2022-10-17T12:22:21.095Z,17.3
2022-10-17T12:24:22.949Z,17.4
2022-10-17T12:25:25.464Z,17.3
2022-10-17T12:27:27.695Z,17.1
2022-10-17T12:29:29.204Z,17.6
2022-10-17T12:31:34.098Z,17.2
2022-10-17T12:33:36.058Z,17.7
2022-10-17T12:35:37.958Z,17.5
2022-10-17T12:37:39.807Z,17.4
2022-10-17T12:39:41.680Z,17.5
2022-10-17T12:41:43.541Z,17.3
2022-10-17T12:43:45.479Z,17.2
2022-10-17T12:47:52.326Z,17.2
2022-10-17T12:51:56.049Z,17.3
2022-10-17T12:53:57.899Z,17.3
2022-10-17T12:55:59.765Z,17.2
2022-10-17T12:58:01.655Z,17.2
2022-10-17T13:02:08.534Z,17.3
2022-10-17T13:04:10.401Z,17.3
2022-10-17T13:06:12.280Z,17.2
2022-10-17T13:08:14.138Z,17.2
2022-10-17T13:12:17.865Z,17
2022-10-17T13:14:19.747Z,16.8
2022-10-17T13:16:24.771Z,17.2
2022-10-17T13:18:26.638Z,17.4
2022-10-17T13:20:31.331Z,17.2
2022-10-17T13:21:30.997Z,17.2
2022-10-17T13:23:32.881Z,17.4
2022-10-17T13:25:37.619Z,17.3
2022-10-17T13:27:36.625Z,17.4
2022-10-17T13:31:43.499Z,17.3
2022-10-17T13:33:45.372Z,17.3
2022-10-17T13:36:00.740Z,17.1
2022-10-17T13:37:53.706Z,17.2
2022-10-17T13:39:56.630Z,17
2022-10-17T13:41:52.856Z,17.1
2022-10-17T13:43:57.860Z,17.2
2022-10-17T13:46:09.140Z,17.1
2022-10-17T13:48:01.614Z,17.2
2022-10-17T13:50:03.841Z,17.2
2022-10-17T13:56:27.434Z,17.3
2022-10-17T13:58:14.077Z,17.3
2022-10-17T14:00:15.952Z,17.1
2022-10-17T14:02:17.833Z,17.2
2022-10-17T14:04:20.371Z,17.2
2022-10-17T14:06:21.543Z,17.3
2022-10-17T14:10:25.263Z,17.4
2022-10-17T14:12:30.291Z,17.3
2022-10-17T14:14:41.481Z,17.4
2022-10-17T14:16:34.030Z,17.2
2022-10-17T14:19:02.527Z,17.4
2022-10-17T14:21:43.441Z,17.3
2022-10-17T14:23:22.459Z,17.1
2022-10-17T14:25:11.275Z,17.3
2022-10-17T14:27:14.695Z,17.4
2022-10-17T14:31:18.380Z,17.2
2022-10-17T14:33:20.249Z,17.3
2022-10-17T14:35:41.107Z,17.4
2022-10-17T14:41:42.447Z,17.4
2022-10-17T14:43:32.727Z,17.1
2022-10-17T14:45:34.574Z,17.6
2022-10-17T14:47:43.517Z,17.7
2022-10-17T14:49:38.298Z,17.6
2022-10-17T14:51:50.608Z,17.6
2022-10-17T14:53:45.178Z,17.8
2022-10-17T14:55:47.049Z,17.6
2022-10-17T14:57:48.932Z,17.6
2022-10-17T14:59:54.585Z,17.7
2022-10-17T15:01:52.652Z,17.6
2022-10-17T15:03:54.520Z,17.6
2022-10-17T15:05:56.377Z,17.5
2022-10-17T15:08:01.412Z,17.4
2022-10-17T15:10:03.415Z,17.4
2022-10-17T15:12:05.118Z,17.4
2022-10-17T15:13:27.140Z,17.4
2022-10-17T15:21:26.229Z,17.5
2022-10-17T15:23:20.150Z,17.3
2022-10-17T15:25:22.013Z,17.4
2022-10-17T15:27:23.878Z,17.3
2022-10-17T15:29:25.748Z,17.2
2022-10-17T15:31:27.601Z,17.4
2022-10-17T15:33:29.470Z,17.2
2022-10-17T15:35:34.503Z,17.4
2022-10-17T15:37:36.347Z,17.2
2022-10-17T15:39:38.196Z,17.2
2022-10-17T15:41:40.083Z,17.2
2022-10-17T15:43:41.950Z,17.2
2022-10-17T15:47:45.665Z,17.1
2022-10-17T15:49:50.686Z,16.9
2022-10-17T15:51:55.246Z,17.2
2022-10-17T15:53:54.416Z,17
2022-10-17T15:55:56.266Z,17
2022-10-17T15:57:58.179Z,17
2022-10-17T16:00:00.014Z,17.1
2022-10-17T16:04:06.907Z,16.9
2022-10-17T16:06:10.838Z,16.9
2022-10-17T16:08:10.636Z,16.8
2022-10-17T16:09:13.122Z,16.9
2022-10-17T16:11:15.000Z,16.7
2022-10-17T16:13:16.861Z,16.7
2022-10-17T16:15:18.719Z,16.8
2022-10-17T16:17:23.740Z,16.7
2022-10-17T16:21:27.481Z,16.5
2022-10-17T16:23:29.324Z,16.2
2022-10-17T16:29:34.954Z,16.5
2022-10-17T16:33:41.848Z,16.4
2022-10-17T16:37:45.581Z,16.3
2022-10-17T16:41:49.303Z,16.2
2022-10-17T16:45:56.208Z,16.3
2022-10-17T16:47:58.058Z,16.2
2022-10-17T16:56:05.560Z,16.1
2022-10-17T16:58:07.431Z,16.2
2022-10-17T17:00:12.459Z,16.4
2022-10-17T17:02:16.377Z,16.1
2022-10-17T17:04:16.210Z,16
2022-10-17T17:11:24.348Z,16.3
2022-10-17T17:13:29.370Z,16.1
2022-10-17T17:17:48.849Z,16.2
2022-10-17T17:19:34.970Z,16.1
2022-10-17T17:21:36.847Z,16
2022-10-17T17:23:38.709Z,16.1
2022-10-17T17:25:40.592Z,16.1
2022-10-17T17:27:45.612Z,16.3
2022-10-17T17:31:49.384Z,16.2
2022-10-17T17:37:54.990Z,15.7
2022-10-17T17:39:56.871Z,15.9
2022-10-17T17:46:05.609Z,16
2022-10-17T17:48:07.496Z,16.1
2022-10-17T17:50:09.359Z,16.1
2022-10-17T17:52:11.243Z,16.1
2022-10-17T17:56:18.137Z,16
2022-10-17T17:58:19.994Z,16.3
2022-10-17T18:02:50.313Z,15.9
2022-10-17T18:04:52.207Z,16
2022-10-17T18:06:54.069Z,16
2022-10-17T18:08:59.093Z,15.9
2022-10-17T18:11:00.950Z,15.9
2022-10-17T18:13:02.844Z,16
2022-10-17T18:15:04.717Z,15.7
2022-10-17T18:17:06.684Z,16
2022-10-17T18:19:08.445Z,15.9
2022-10-17T18:21:10.333Z,16.1
2022-10-17T18:25:17.214Z,16
2022-10-17T18:27:19.112Z,15.8
2022-10-17T18:29:20.976Z,16
2022-10-17T18:31:22.841Z,15.9
2022-10-17T18:33:24.713Z,15.8
2022-10-17T18:35:26.606Z,15.9
2022-10-17T18:37:31.718Z,16
2022-10-17T18:39:33.480Z,15.8
2022-10-17T18:41:35.367Z,16.1
2022-10-17T18:43:37.231Z,16.1
2022-10-17T18:45:39.126Z,16
2022-10-17T18:47:40.996Z,16.1
2022-10-17T18:49:42.856Z,15.8
2022-10-17T18:51:47.891Z,15.9
2022-10-17T18:53:49.751Z,16.1
2022-10-17T18:55:51.637Z,16
2022-10-17T18:56:54.163Z,16.1
2022-10-17T18:58:56.059Z,16.2
2022-10-17T19:00:57.938Z,16
2022-10-17T19:02:59.837Z,15.8
2022-10-17T19:05:04.836Z,16
2022-10-17T19:07:06.727Z,15.8
2022-10-17T19:09:08.587Z,16
2022-10-17T19:15:14.243Z,16.1
2022-10-17T19:17:16.131Z,15.9
2022-10-17T19:19:21.145Z,15.7
2022-10-17T19:21:23.044Z,15.8
2022-10-17T19:23:24.906Z,15.7
2022-10-17T19:25:26.794Z,16
2022-10-17T19:27:29.107Z,16.2
2022-10-17T19:29:30.563Z,15.8
2022-10-17T19:31:32.424Z,15.8
2022-10-17T19:33:37.462Z,15.9
2022-10-17T19:35:39.349Z,15.7
2022-10-17T19:37:41.219Z,15.9
2022-10-17T19:39:43.088Z,15.8
2022-10-17T19:41:44.968Z,15.7
2022-10-17T19:43:46.851Z,15.9
2022-10-17T19:45:48.721Z,15.9
2022-10-17T19:47:53.747Z,15.8
2022-10-17T19:49:55.668Z,15.7
2022-10-17T19:51:57.512Z,15.5
2022-10-17T19:53:00.027Z,15.7
2022-10-17T19:55:01.924Z,16.2
2022-10-17T19:57:08.011Z,15.8
2022-10-17T19:59:05.661Z,16.1
2022-10-17T20:01:10.724Z,15.6
2022-10-17T20:03:12.590Z,15.8
2022-10-17T20:05:18.448Z,15.8
2022-10-17T20:07:16.334Z,16
2022-10-17T20:09:18.209Z,15.8
2022-10-17T20:11:20.079Z,16
2022-10-17T20:13:21.969Z,15.9
2022-10-17T20:15:26.981Z,16
2022-10-17T20:17:28.936Z,15.9
2022-10-17T20:19:32.288Z,16.1
2022-10-17T20:21:34.115Z,16.2
2022-10-17T20:23:36.000Z,16.2
2022-10-17T20:25:37.884Z,16
2022-10-17T20:27:39.794Z,16.1
2022-10-17T20:29:44.775Z,16.2
2022-10-17T20:31:46.676Z,16
2022-10-17T20:33:48.554Z,16
2022-10-17T20:35:50.416Z,16.1
2022-10-17T20:37:52.299Z,16.2
2022-10-17T20:40:16.562Z,16
2022-10-17T20:41:56.024Z,16.1
2022-10-17T20:44:01.047Z,16.2
2022-10-17T20:46:15.483Z,16
2022-10-17T20:48:04.793Z,16.4
2022-10-17T20:49:07.311Z,16.2
2022-10-17T20:51:09.202Z,15.9
2022-10-17T20:53:35.457Z,16.2
2022-10-17T20:57:17.964Z,16.1
2022-10-17T21:01:21.749Z,15.9
2022-10-17T21:03:23.601Z,15.8
2022-10-17T21:07:27.544Z,16.3
2022-10-17T21:09:29.237Z,16.2
2022-10-17T21:11:34.254Z,15.8
2022-10-17T21:13:36.118Z,15.9
2022-10-17T21:15:38.004Z,16.1
2022-10-17T21:17:39.891Z,15.9
2022-10-17T21:19:41.747Z,15.8
2022-10-17T21:21:43.627Z,15.6
2022-10-17T21:23:45.544Z,16.1
2022-10-17T21:25:50.549Z,15.9
2022-10-17T21:27:52.434Z,15.7
2022-10-17T21:29:54.350Z,15.9
2022-10-17T21:31:56.194Z,16
2022-10-17T21:33:58.081Z,15.8
2022-10-17T21:35:59.953Z,15.6
2022-10-17T21:38:01.807Z,15.7
2022-10-17T21:40:06.848Z,15.6
2022-10-17T21:42:08.725Z,15.5
2022-10-17T21:44:10.603Z,15.9
2022-10-17T21:46:39.114Z,16
2022-10-17T21:48:40.989Z,15.7
2022-10-17T21:50:42.859Z,15.7
2022-10-17T21:52:47.881Z,15.5
2022-10-17T21:54:49.755Z,15.8
2022-10-17T21:56:51.660Z,15.7
2022-10-17T21:58:53.520Z,15.8
2022-10-17T22:00:55.396Z,15.8
2022-10-17T22:02:57.275Z,15.7
2022-10-17T22:04:59.162Z,15.5
2022-10-17T22:07:04.191Z,15.5
2022-10-17T22:09:06.073Z,15.6
2022-10-17T22:11:07.954Z,15.7
2022-10-17T22:13:09.807Z,15.4
2022-10-17T22:15:11.768Z,15.2
2022-10-17T22:17:14.115Z,15.5
2022-10-17T22:19:15.994Z,15.7
2022-10-17T22:21:21.019Z,15.7
2022-10-17T22:23:22.885Z,15.5
2022-10-17T22:27:26.663Z,15.7
2022-10-17T22:29:28.523Z,15.6
2022-10-17T22:31:30.435Z,15.5
2022-10-17T22:33:32.282Z,15.6
2022-10-17T22:35:37.324Z,15.5
2022-10-17T22:37:39.212Z,15.7
2022-10-17T22:39:41.086Z,15.7
2022-10-17T22:40:43.607Z,15.4
2022-10-17T22:42:45.488Z,15.5
2022-10-17T22:44:47.350Z,15.5
2022-10-17T22:46:49.222Z,15.5
2022-10-17T22:48:54.291Z,15.5
2022-10-17T22:50:56.135Z,15.2
2022-10-17T22:52:58.050Z,15.4
2022-10-17T22:54:59.934Z,15.5
2022-10-17T22:57:01.823Z,15.5
2022-10-17T23:01:05.658Z,15.5
2022-10-17T23:03:10.612Z,15.4
2022-10-17T23:05:12.487Z,15.5
2022-10-17T23:07:14.353Z,15.5
2022-10-17T23:09:16.321Z,15.5
2022-10-17T23:11:18.131Z,15.2
2022-10-17T23:13:20.053Z,15.3
2022-10-17T23:15:21.953Z,15.3
2022-10-17T23:17:26.956Z,15.4
2022-10-17T23:19:28.829Z,15.5
2022-10-17T23:21:30.696Z,15.4
2022-10-17T23:23:32.567Z,15.3
2022-10-17T23:25:34.445Z,15.3
2022-10-17T23:27:36.342Z,15
2022-10-17T23:29:38.222Z,15.5
2022-10-17T23:31:43.236Z,15.2
2022-10-17T23:33:45.260Z,15.4
2022-10-17T23:35:46.999Z,15.2
2022-10-17T23:38:53.762Z,15.3
2022-10-17T23:40:53.291Z,15.2
2022-10-17T23:47:02.131Z,15.3
2022-10-17T23:49:03.987Z,15.6
2022-10-17T23:53:07.765Z,15.5
2022-10-17T23:57:11.545Z,15.3
